Middleton, WI (53562)

7:34 AM CST on February 22, 2017 (GMT -0600)
Sak's Woods, Middleton | | Change Station
Active Advisory: Dense Fog Advisory

Elev 948 ft 43.10 °N, 89.50 °W | Updated 35 seconds ago

Clear
Clear
47.1 °F
Feels Like 47 °F
N
0.0
Wind Variable Wind from SE

Today
High -- | Low -- °F
--% Chance of Precip.
Yesterday
High -- | Low -- °F
Precip. -- in
Pressure 29.71 in
Visibility 10.0 miles
Clouds Clear
Windchill 47 °F
Dew Point 45 °F
Humidity 93%
Rainfall 0.00 in
Snow Depth Not available.
6:44 AM 5:38 PM
Waning Crescent, 17% visible
METAR KC29 221315Z AUTO 21011KT 10SM CLR 11/08 A2971 RMK AO1 T01070078
Pressure 29.71 in
Visibility 10.0 miles
Clouds Clear
Windchill 47 °F
Dew Point 45 °F
Humidity 93%
Rainfall 0.00 in
Snow Depth Not available.
6:44 AM 5:38 PM
Waning Crescent, 17% visible
METAR KC29 221315Z AUTO 21011KT 10SM CLR 11/08 A2971 RMK AO1 T01070078

Get Your Daily Forecast Email!

Thanks for signing up!

Be on the lookout for a verification email in your inbox.

You'll start receiving the daily forecast at 8 AM.

×

10-Day Weather Forecast

Almanac

Astronomy

Feb. 22, 2017 Rise Set
Actual Time
Civil Twilight
Nautical Twilight
Astronomical Twilight
Moon
Length of Visible Light
Length of Day
Tomorrow will be .
, % of the Moon is Illuminated

Today's Extremes

State Highs State Lows

Community

WunderPhotos

Upload Photos

1,962,540 photos uploaded!

WunderBlog® & News

Nearby

Air Quality

  Air Quality AQ Index Pollutant
Not available.

Snow Depth

Station Depth Elevation

Earthquake Activity

City Distance Mag. Time & Date
Minimum magnitude displayed is 2.5.

Coastal Water Temperatures

Place Temperature

Stations

Nearby Weather Stations

Station Location Temp. Windchill Dew Point Humidity Wind Precip. Elev Updated Type
                   

Watches & Warnings

Dense Fog Advisory
Issued: 4:49 AM CST Feb. 22, 2017 – National Weather Service

... Dense fog advisory in effect until 9 am CST this morning...

The National Weather Service in Milwaukee/Sullivan has issued a
dense fog advisory... which is in effect until 9 am CST this
morning.

* Timing... through the middle morning hours.

* Visibility... around or less than 1/4 mile.

* Impacts... visibilities will be reduced greatly. This can be
very dangerous for motorists unprepared for these conditions.

Precautionary/preparedness actions...

A dense fog advisory means visibilities will frequently be
reduced to less than one quarter mile. If driving... slow down...
use your headlights... and leave plenty of distance ahead of you.